RYR4AA EGGW-LIPE
Flight info
| Callsign | RYR4AA |
|---|---|
| Flight time | N/A |
| Altitude | 37000 |
| Route | MATCH Q295 BRAIN P44 DAGGA M85 ITVIP L10 DVR UL9 KONAN UL607 SPI DCT LIRSU DCT KRH DCT BATUB DCT TIRUL M738 NATAG DCT UNTAD DCT ADOSA M738 BENUS |
| Aircraft | B738/M-SDE3FGILRWY/SB1 |
Departure
| Time | N/A |
|---|---|
| Airport | London Luton Airport (EGGW) |
Arrival
| Time | 2026-05-01 08:04 |
|---|---|
| Airport | Bologna Guglielmo Marconi Airport (LIPE) |
| Time | Latitude | Longitude | Altitude | Speed | Heading |
|---|---|---|---|---|---|
| 2026-05-01 07:23 | 48.02091 | 9.56209 | 37339 ft | 445 kts | 143° |
| 2026-05-01 07:24 | 47.94414 | 9.64004 | 37333 ft | 445 kts | 142° |
| 2026-05-01 07:24 | 47.89325 | 9.69235 | 37328 ft | 445 kts | 142° |
| 2026-05-01 07:25 | 47.84221 | 9.74451 | 37322 ft | 444 kts | 142° |
| 2026-05-01 07:25 | 47.79115 | 9.79642 | 37344 ft | 445 kts | 142° |
| 2026-05-01 07:26 | 47.74009 | 9.84818 | 37333 ft | 444 kts | 142° |
| 2026-05-01 07:26 | 47.68897 | 9.89987 | 37325 ft | 444 kts | 142° |
| 2026-05-01 07:27 | 47.63792 | 9.95137 | 37314 ft | 444 kts | 142° |
| 2026-05-01 07:27 | 47.58685 | 10.00278 | 37311 ft | 443 kts | 142° |
| 2026-05-01 07:28 | 47.53579 | 10.05405 | 37300 ft | 443 kts | 142° |
| 2026-05-01 07:28 | 47.48472 | 10.10522 | 37306 ft | 444 kts | 142° |
| 2026-05-01 07:29 | 47.43344 | 10.15648 | 37309 ft | 446 kts | 142° |
| 2026-05-01 07:29 | 47.38198 | 10.20776 | 37302 ft | 447 kts | 142° |
| 2026-05-01 07:30 | 47.33041 | 10.25905 | 37299 ft | 447 kts | 142° |
| 2026-05-01 07:30 | 47.27868 | 10.31037 | 37289 ft | 449 kts | 142° |
| 2026-05-01 07:31 | 47.22694 | 10.36159 | 37305 ft | 448 kts | 142° |
| 2026-05-01 07:32 | 47.09767 | 10.48905 | 37316 ft | 450 kts | 142° |
| 2026-05-01 07:32 | 47.07157 | 10.51447 | 37194 ft | 452 kts | 144° |
| 2026-05-01 07:33 | 47.01369 | 10.55055 | 36502 ft | 451 kts | 159° |
| 2026-05-01 07:33 | 46.98368 | 10.56339 | 36111 ft | 448 kts | 160° |
| 2026-05-01 07:33 | 46.92434 | 10.58902 | 35342 ft | 441 kts | 158° |
| 2026-05-01 07:34 | 46.89510 | 10.60214 | 34964 ft | 438 kts | 158° |
| 2026-05-01 07:34 | 46.83698 | 10.62750 | 34167 ft | 435 kts | 160° |
| 2026-05-01 07:34 | 46.80766 | 10.63826 | 33751 ft | 434 kts | 161° |
| 2026-05-01 07:35 | 46.77837 | 10.64834 | 33366 ft | 431 kts | 161° |
| 2026-05-01 07:35 | 46.74924 | 10.65822 | 33002 ft | 428 kts | 161° |
| 2026-05-01 07:35 | 46.72034 | 10.66808 | 32621 ft | 424 kts | 161° |
| 2026-05-01 07:35 | 46.69172 | 10.67796 | 32296 ft | 421 kts | 161° |
| 2026-05-01 07:36 | 46.66332 | 10.68787 | 31929 ft | 419 kts | 161° |
| 2026-05-01 07:36 | 46.63510 | 10.69777 | 31588 ft | 416 kts | 160° |
| 2026-05-01 07:36 | 46.60700 | 10.70766 | 31231 ft | 414 kts | 160° |
| 2026-05-01 07:36 | 46.57904 | 10.71750 | 30898 ft | 413 kts | 160° |
| 2026-05-01 07:37 | 46.52343 | 10.73705 | 30173 ft | 409 kts | 160° |
| 2026-05-01 07:37 | 46.49591 | 10.74672 | 29796 ft | 406 kts | 160° |
| 2026-05-01 07:37 | 46.46857 | 10.75629 | 29434 ft | 402 kts | 160° |
| 2026-05-01 07:38 | 46.44152 | 10.76575 | 29100 ft | 398 kts | 160° |
| 2026-05-01 07:38 | 46.41473 | 10.77516 | 28725 ft | 395 kts | 160° |
| 2026-05-01 07:38 | 46.36195 | 10.79362 | 28039 ft | 390 kts | 160° |
| 2026-05-01 07:39 | 46.33536 | 10.80285 | 27685 ft | 386 kts | 161° |
| 2026-05-01 07:39 | 46.30971 | 10.81177 | 27395 ft | 383 kts | 160° |
| 2026-05-01 07:39 | 46.25807 | 10.82976 | 26682 ft | 380 kts | 160° |
| 2026-05-01 07:40 | 46.23244 | 10.83862 | 26374 ft | 378 kts | 160° |
| 2026-05-01 07:40 | 46.20689 | 10.84733 | 26016 ft | 376 kts | 160° |
| 2026-05-01 07:40 | 46.18147 | 10.85562 | 25693 ft | 374 kts | 161° |
| 2026-05-01 07:40 | 46.15607 | 10.86372 | 25364 ft | 374 kts | 161° |
| 2026-05-01 07:41 | 46.13075 | 10.87178 | 25025 ft | 372 kts | 161° |
| 2026-05-01 07:41 | 46.10554 | 10.87976 | 24710 ft | 371 kts | 161° |
| 2026-05-01 07:41 | 46.05529 | 10.89571 | 24048 ft | 369 kts | 161° |
| 2026-05-01 07:42 | 46.03027 | 10.90365 | 23670 ft | 367 kts | 161° |
| 2026-05-01 07:42 | 46.00541 | 10.91156 | 23311 ft | 364 kts | 161° |
| 2026-05-01 07:42 | 45.98074 | 10.91941 | 22986 ft | 362 kts | 161° |
| 2026-05-01 07:42 | 45.95619 | 10.92721 | 22650 ft | 359 kts | 161° |
| 2026-05-01 07:43 | 45.93191 | 10.93493 | 22325 ft | 357 kts | 161° |
| 2026-05-01 07:43 | 45.90774 | 10.94261 | 22005 ft | 354 kts | 161° |
| 2026-05-01 07:43 | 45.86005 | 10.95769 | 21349 ft | 346 kts | 161° |
| 2026-05-01 07:44 | 45.81348 | 10.97246 | 20765 ft | 342 kts | 161° |
| 2026-05-01 07:44 | 45.76719 | 10.98714 | 20152 ft | 340 kts | 161° |
| 2026-05-01 07:45 | 45.74411 | 10.99444 | 19830 ft | 339 kts | 161° |
| 2026-05-01 07:45 | 45.72110 | 11.00171 | 19522 ft | 338 kts | 161° |
| 2026-05-01 07:45 | 45.69820 | 11.00893 | 19208 ft | 336 kts | 161° |
| 2026-05-01 07:45 | 45.67545 | 11.01609 | 18925 ft | 334 kts | 161° |
| 2026-05-01 07:46 | 45.65273 | 11.02324 | 18596 ft | 335 kts | 162° |
| 2026-05-01 07:46 | 45.63001 | 11.03006 | 18259 ft | 333 kts | 164° |
| 2026-05-01 07:46 | 45.58484 | 11.04110 | 17625 ft | 330 kts | 166° |
| 2026-05-01 07:47 | 45.56222 | 11.04640 | 17315 ft | 328 kts | 166° |
| 2026-05-01 07:47 | 45.53978 | 11.05170 | 16988 ft | 326 kts | 166° |
| 2026-05-01 07:47 | 45.51755 | 11.05701 | 16715 ft | 323 kts | 165° |
| 2026-05-01 07:47 | 45.49544 | 11.06234 | 16409 ft | 322 kts | 166° |
| 2026-05-01 07:48 | 45.45153 | 11.07298 | 15808 ft | 318 kts | 166° |
| 2026-05-01 07:48 | 45.42970 | 11.07828 | 15516 ft | 317 kts | 166° |
| 2026-05-01 07:48 | 45.40798 | 11.08356 | 15212 ft | 317 kts | 166° |
| 2026-05-01 07:49 | 45.38629 | 11.08883 | 14917 ft | 316 kts | 166° |
| 2026-05-01 07:49 | 45.34305 | 11.09932 | 14320 ft | 315 kts | 166° |
| 2026-05-01 07:49 | 45.32148 | 11.10455 | 13977 ft | 314 kts | 166° |
| 2026-05-01 07:50 | 45.29995 | 11.10977 | 13648 ft | 314 kts | 166° |
| 2026-05-01 07:50 | 45.25711 | 11.12013 | 13021 ft | 311 kts | 166° |
| 2026-05-01 07:50 | 45.23581 | 11.12528 | 12713 ft | 310 kts | 166° |
| 2026-05-01 07:51 | 45.21461 | 11.13040 | 12413 ft | 309 kts | 166° |
| 2026-05-01 07:51 | 45.19347 | 11.13550 | 12110 ft | 307 kts | 166° |
| 2026-05-01 07:51 | 45.17242 | 11.14057 | 11782 ft | 308 kts | 166° |
| 2026-05-01 07:52 | 45.12997 | 11.15076 | 11101 ft | 309 kts | 166° |
| 2026-05-01 07:52 | 45.10881 | 11.15582 | 10796 ft | 308 kts | 167° |
| 2026-05-01 07:52 | 45.08777 | 11.16085 | 10511 ft | 306 kts | 167° |
| 2026-05-01 07:53 | 45.04691 | 11.17058 | 10060 ft | 291 kts | 166° |
| 2026-05-01 07:53 | 45.02717 | 11.17530 | 9762 ft | 285 kts | 167° |
| 2026-05-01 07:53 | 45.00782 | 11.17993 | 9493 ft | 280 kts | 167° |
| 2026-05-01 07:53 | 44.98866 | 11.18451 | 9242 ft | 279 kts | 167° |
| 2026-05-01 07:54 | 44.95058 | 11.19361 | 8717 ft | 276 kts | 167° |
| 2026-05-01 07:55 | 44.89404 | 11.20704 | 7917 ft | 273 kts | 167° |
| 2026-05-01 07:55 | 44.85697 | 11.21573 | 7446 ft | 270 kts | 167° |
| 2026-05-01 07:56 | 44.80300 | 11.22835 | 6628 ft | 257 kts | 167° |
| 2026-05-01 07:56 | 44.76712 | 11.23630 | 5584 ft | 262 kts | 176° |
| 2026-05-01 07:57 | 44.74937 | 11.23146 | 5302 ft | 259 kts | 201° |
| 2026-05-01 07:57 | 44.72490 | 11.19760 | 4710 ft | 252 kts | 244° |
| 2026-05-01 07:58 | 44.71163 | 11.15294 | 4134 ft | 242 kts | 243° |
| 2026-05-01 07:58 | 44.69321 | 11.11553 | 3632 ft | 231 kts | 227° |
| 2026-05-01 07:59 | 44.67170 | 11.08317 | 3070 ft | 223 kts | 222° |
| 2026-05-01 07:59 | 44.64933 | 11.05546 | 2737 ft | 204 kts | 219° |
| 2026-05-01 08:00 | 44.61215 | 11.07683 | 2471 ft | 190 kts | 117° |
| 2026-05-01 08:01 | 44.59478 | 11.12378 | 2444 ft | 170 kts | 116° |
| 2026-05-01 08:01 | 44.58944 | 11.13854 | 2281 ft | 167 kts | 115° |
| 2026-05-01 08:01 | 44.58421 | 11.15298 | 2092 ft | 167 kts | 115° |
| 2026-05-01 08:02 | 44.57408 | 11.18154 | 1639 ft | 158 kts | 116° |
| 2026-05-01 08:02 | 44.56928 | 11.19463 | 1482 ft | 151 kts | 116° |
| 2026-05-01 08:03 | 44.56001 | 11.22016 | 967 ft | 144 kts | 119° |
| 2026-05-01 08:03 | 44.55560 | 11.23259 | 811 ft | 141 kts | 118° |
| 2026-05-01 08:03 | 44.54685 | 11.25693 | 462 ft | 143 kts | 117° |
| 2026-05-01 08:04 | 44.53762 | 11.28256 | 137 ft | 145 kts | 116° |
| 2026-05-01 08:04 | 44.53214 | 11.29784 | 127 ft | 19 kts | 117° |
| 2026-05-01 08:05 | 44.53139 | 11.29942 | 126 ft | 11 kts | 158° |
| 2026-05-01 08:05 | 44.53079 | 11.29896 | 129 ft | 11 kts | 237° |
| 2026-05-01 08:05 | 44.53037 | 11.29807 | 128 ft | 11 kts | 237° |
| 2026-05-01 08:06 | 44.53075 | 11.29621 | 129 ft | 10 kts | 297° |
| 2026-05-01 08:06 | 44.53077 | 11.29475 | 127 ft | 8 kts | 298° |
| 2026-05-01 08:07 | 44.53067 | 11.29386 | 128 ft | 4 kts | 207° |
| 2026-05-01 08:07 | 44.53059 | 11.29380 | 126 ft | 0 kts | 207° |